Hachinohe, Japan
Current Conditions -  °F | °C
As of 9:00 PM on Sunday 21 Dec 2014 (Local Time) from RJSA Reporting Station
Snow Showers Snow Showers  
Wind Chill: 13°   Ceiling: 3500
Heat Index: 25°   Visibility: 4mi
Dew Point: 19°   Wind: 14mph
Humidity: 80%   Direction: 250°WSW
Pressure: 29.74"   Gusts: NA
Location:  40.52°N, 141.52°E
Report Text: RJSA 211200Z 25012KT 7000 -SHSN FEW010 SCT020 BKN035 M04/M07 Q1007
Loading
Personal Weather Stations






























Interactive Weather Map New forecast layout! Learn more

10-Day Weather Forecast

Advertisements
Track Severe Weather on mobile